sensor_id;sensor_type;location;lat;lon;timestamp;temperature;humidity
13203;DHT22;6666;51.626;7.530;2023-02-21T00:00:40;8.70;99.90
13203;DHT22;6666;51.626;7.530;2023-02-21T00:03:26;8.70;99.90
13203;DHT22;6666;51.626;7.530;2023-02-21T00:06:14;8.70;99.90
13203;DHT22;6666;51.626;7.530;2023-02-21T00:08:59;8.70;99.90
13203;DHT22;6666;51.626;7.530;2023-02-21T00:11:45;8.60;99.90
13203;DHT22;6666;51.626;7.530;2023-02-21T00:14:31;8.70;99.90
13203;DHT22;6666;51.626;7.530;2023-02-21T00:17:16;8.70;99.90
13203;DHT22;6666;51.626;7.530;2023-02-21T00:20:02;8.70;99.90
13203;DHT22;6666;51.626;7.530;2023-02-21T00:22:49;8.70;99.90
13203;DHT22;6666;51.626;7.530;2023-02-21T00:25:35;8.60;99.90
13203;DHT22;6666;51.626;7.530;2023-02-21T00:28:21;8.70;99.90
13203;DHT22;6666;51.626;7.530;2023-02-21T00:31:07;8.70;99.90
13203;DHT22;6666;51.626;7.530;2023-02-21T00:33:53;8.70;99.90
13203;DHT22;6666;51.626;7.530;2023-02-21T00:36:39;8.70;99.90
13203;DHT22;6666;51.626;7.530;2023-02-21T00:39:26;8.70;99.90
13203;DHT22;6666;51.626;7.530;2023-02-21T00:42:12;8.60;99.90
13203;DHT22;6666;51.626;7.530;2023-02-21T00:44:58;8.60;99.90
13203;DHT22;6666;51.626;7.530;2023-02-21T00:47:43;8.60;99.90
13203;DHT22;6666;51.626;7.530;2023-02-21T00:50:29;8.70;99.90
13203;DHT22;6666;51.626;7.530;2023-02-21T00:53:15;8.70;99.90
13203;DHT22;6666;51.626;7.530;2023-02-21T00:56:02;8.60;99.90
13203;DHT22;6666;51.626;7.530;2023-02-21T00:58:48;8.70;99.90
13203;DHT22;6666;51.626;7.530;2023-02-21T01:01:34;8.70;99.90
13203;DHT22;6666;51.626;7.530;2023-02-21T01:04:19;8.70;99.90
13203;DHT22;6666;51.626;7.530;2023-02-21T01:07:06;8.60;99.90
13203;DHT22;6666;51.626;7.530;2023-02-21T01:09:52;8.70;99.90
13203;DHT22;6666;51.626;7.530;2023-02-21T01:12:39;8.60;99.90
13203;DHT22;6666;51.626;7.530;2023-02-21T01:15:25;8.70;99.90
13203;DHT22;6666;51.626;7.530;2023-02-21T01:18:10;8.70;99.90
13203;DHT22;6666;51.626;7.530;2023-02-21T01:20:56;8.70;99.90
13203;DHT22;6666;51.626;7.530;2023-02-21T01:23:42;8.60;99.90
13203;DHT22;6666;51.626;7.530;2023-02-21T01:26:27;8.60;99.90
13203;DHT22;6666;51.626;7.530;2023-02-21T01:29:15;8.60;99.90
13203;DHT22;6666;51.626;7.530;2023-02-21T01:32:01;8.70;99.90
13203;DHT22;6666;51.626;7.530;2023-02-21T01:34:46;8.60;99.90
13203;DHT22;6666;51.626;7.530;2023-02-21T01:37:32;8.60;99.90
13203;DHT22;6666;51.626;7.530;2023-02-21T01:40:18;8.60;99.90
13203;DHT22;6666;51.626;7.530;2023-02-21T01:43:12;8.60;99.90
13203;DHT22;6666;51.626;7.530;2023-02-21T01:46:00;8.60;99.90
13203;DHT22;6666;51.626;7.530;2023-02-21T01:48:47;8.60;99.90
13203;DHT22;6666;51.626;7.530;2023-02-21T01:51:38;8.60;99.90
13203;DHT22;6666;51.626;7.530;2023-02-21T01:54:26;8.60;99.90
13203;DHT22;6666;51.626;7.530;2023-02-21T01:57:13;8.60;99.90
13203;DHT22;6666;51.626;7.530;2023-02-21T02:00:02;8.60;99.90
13203;DHT22;6666;51.626;7.530;2023-02-21T02:02:56;8.60;99.90
13203;DHT22;6666;51.626;7.530;2023-02-21T02:05:45;8.60;99.90
13203;DHT22;6666;51.626;7.530;2023-02-21T02:08:33;8.60;99.90
13203;DHT22;6666;51.626;7.530;2023-02-21T02:11:35;8.60;99.90
13203;DHT22;6666;51.626;7.530;2023-02-21T02:14:41;8.60;99.90
13203;DHT22;6666;51.626;7.530;2023-02-21T02:17:22;8.70;99.90
13203;DHT22;6666;51.626;7.530;2023-02-21T02:20:34;8.70;99.90
13203;DHT22;6666;51.626;7.530;2023-02-21T02:26:45;8.60;99.90
13203;DHT22;6666;51.626;7.530;2023-02-21T02:29:49;8.60;99.90
13203;DHT22;6666;51.626;7.530;2023-02-21T02:32:45;8.60;99.90
13203;DHT22;6666;51.626;7.530;2023-02-21T02:35:21;8.60;99.90
13203;DHT22;6666;51.626;7.530;2023-02-21T02:37:57;8.60;99.90
13203;DHT22;6666;51.626;7.530;2023-02-21T02:40:31;8.60;99.90
13203;DHT22;6666;51.626;7.530;2023-02-21T02:43:08;8.60;99.90
13203;DHT22;6666;51.626;7.530;2023-02-21T02:45:42;8.60;99.90
13203;DHT22;6666;51.626;7.530;2023-02-21T02:48:15;8.60;99.90
13203;DHT22;6666;51.626;7.530;2023-02-21T02:50:49;8.60;99.90
13203;DHT22;6666;51.626;7.530;2023-02-21T02:53:20;8.60;99.90
13203;DHT22;6666;51.626;7.530;2023-02-21T02:55:53;8.60;99.90
13203;DHT22;6666;51.626;7.530;2023-02-21T02:58:26;8.50;99.90
13203;DHT22;6666;51.626;7.530;2023-02-21T03:04:13;8.60;99.90
13203;DHT22;6666;51.626;7.530;2023-02-21T03:06:53;8.50;99.90
13203;DHT22;6666;51.626;7.530;2023-02-21T03:09:36;8.50;99.90
13203;DHT22;6666;51.626;7.530;2023-02-21T03:12:09;8.50;99.90
13203;DHT22;6666;51.626;7.530;2023-02-21T03:14:52;8.60;99.90
13203;DHT22;6666;51.626;7.530;2023-02-21T03:17:27;8.60;99.90
13203;DHT22;6666;51.626;7.530;2023-02-21T03:19:59;8.60;99.90
13203;DHT22;6666;51.626;7.530;2023-02-21T03:22:31;8.60;99.90
13203;DHT22;6666;51.626;7.530;2023-02-21T03:25:01;8.50;99.90
13203;DHT22;6666;51.626;7.530;2023-02-21T03:27:36;8.60;99.90
13203;DHT22;6666;51.626;7.530;2023-02-21T03:30:16;8.50;99.90
13203;DHT22;6666;51.626;7.530;2023-02-21T03:32:50;8.50;99.90
13203;DHT22;6666;51.626;7.530;2023-02-21T03:35:22;8.60;99.90
13203;DHT22;6666;51.626;7.530;2023-02-21T03:37:52;8.50;99.90
13203;DHT22;6666;51.626;7.530;2023-02-21T03:40:25;8.50;99.90
13203;DHT22;6666;51.626;7.530;2023-02-21T03:42:57;8.50;99.90
13203;DHT22;6666;51.626;7.530;2023-02-21T03:45:29;8.50;99.90
13203;DHT22;6666;51.626;7.530;2023-02-21T03:48:18;8.50;99.90
13203;DHT22;6666;51.626;7.530;2023-02-21T03:51:06;8.50;99.90
13203;DHT22;6666;51.626;7.530;2023-02-21T03:53:37;8.50;99.90
13203;DHT22;6666;51.626;7.530;2023-02-21T03:56:07;8.50;99.90
13203;DHT22;6666;51.626;7.530;2023-02-21T03:58:54;8.50;99.90
13203;DHT22;6666;51.626;7.530;2023-02-21T04:01:23;8.50;99.90
13203;DHT22;6666;51.626;7.530;2023-02-21T04:03:53;8.50;99.90
13203;DHT22;6666;51.626;7.530;2023-02-21T04:06:22;8.40;99.90
13203;DHT22;6666;51.626;7.530;2023-02-21T04:08:51;8.50;99.90
13203;DHT22;6666;51.626;7.530;2023-02-21T04:11:21;8.50;99.90
13203;DHT22;6666;51.626;7.530;2023-02-21T04:13:52;8.50;99.90
13203;DHT22;6666;51.626;7.530;2023-02-21T04:16:20;8.50;99.90
13203;DHT22;6666;51.626;7.530;2023-02-21T04:18:51;8.50;99.90
13203;DHT22;6666;51.626;7.530;2023-02-21T04:21:20;8.60;99.90
13203;DHT22;6666;51.626;7.530;2023-02-21T04:23:52;8.50;99.90
13203;DHT22;6666;51.626;7.530;2023-02-21T04:26:22;8.50;99.90
13203;DHT22;6666;51.626;7.530;2023-02-21T04:28:51;8.60;99.90
13203;DHT22;6666;51.626;7.530;2023-02-21T04:31:20;8.50;99.90
13203;DHT22;6666;51.626;7.530;2023-02-21T04:33:49;8.50;99.90
13203;DHT22;6666;51.626;7.530;2023-02-21T04:36:36;8.50;99.90
13203;DHT22;6666;51.626;7.530;2023-02-21T04:39:07;8.50;99.90
13203;DHT22;6666;51.626;7.530;2023-02-21T04:41:36;8.50;99.90
13203;DHT22;6666;51.626;7.530;2023-02-21T04:44:05;8.50;99.90
13203;DHT22;6666;51.626;7.530;2023-02-21T04:46:34;8.50;99.90
13203;DHT22;6666;51.626;7.530;2023-02-21T04:49:02;8.50;99.90
13203;DHT22;6666;51.626;7.530;2023-02-21T04:51:31;8.60;99.90
13203;DHT22;6666;51.626;7.530;2023-02-21T04:53:59;8.50;99.90
13203;DHT22;6666;51.626;7.530;2023-02-21T04:56:29;8.50;99.90
13203;DHT22;6666;51.626;7.530;2023-02-21T04:58:58;8.50;99.90
13203;DHT22;6666;51.626;7.530;2023-02-21T05:01:27;8.50;99.90
13203;DHT22;6666;51.626;7.530;2023-02-21T05:03:57;8.50;99.90
13203;DHT22;6666;51.626;7.530;2023-02-21T05:06:28;8.50;99.90
13203;DHT22;6666;51.626;7.530;2023-02-21T05:08:57;8.50;99.90
13203;DHT22;6666;51.626;7.530;2023-02-21T05:11:26;8.50;99.90
13203;DHT22;6666;51.626;7.530;2023-02-21T05:13:56;8.50;99.90
13203;DHT22;6666;51.626;7.530;2023-02-21T05:16:24;8.40;99.90
13203;DHT22;6666;51.626;7.530;2023-02-21T05:18:52;8.40;99.90
13203;DHT22;6666;51.626;7.530;2023-02-21T05:21:20;8.30;99.90
13203;DHT22;6666;51.626;7.530;2023-02-21T05:23:49;8.30;99.90
13203;DHT22;6666;51.626;7.530;2023-02-21T05:26:25;8.30;99.90
13203;DHT22;6666;51.626;7.530;2023-02-21T05:28:57;8.40;99.90
13203;DHT22;6666;51.626;7.530;2023-02-21T05:31:26;8.30;99.90
13203;DHT22;6666;51.626;7.530;2023-02-21T05:33:54;8.40;99.90
13203;DHT22;6666;51.626;7.530;2023-02-21T05:36:22;8.40;99.90
13203;DHT22;6666;51.626;7.530;2023-02-21T05:38:53;8.30;99.90
13203;DHT22;6666;51.626;7.530;2023-02-21T05:41:22;8.30;99.90
13203;DHT22;6666;51.626;7.530;2023-02-21T05:43:51;8.40;99.90
13203;DHT22;6666;51.626;7.530;2023-02-21T05:46:23;8.40;99.90
13203;DHT22;6666;51.626;7.530;2023-02-21T05:48:53;8.30;99.90
13203;DHT22;6666;51.626;7.530;2023-02-21T05:51:22;8.30;99.90
13203;DHT22;6666;51.626;7.530;2023-02-21T05:53:51;8.30;99.90
13203;DHT22;6666;51.626;7.530;2023-02-21T05:56:20;8.30;99.90
13203;DHT22;6666;51.626;7.530;2023-02-21T05:58:49;8.30;99.90
13203;DHT22;6666;51.626;7.530;2023-02-21T06:01:17;8.30;99.90
13203;DHT22;6666;51.626;7.530;2023-02-21T06:03:47;8.30;99.90
13203;DHT22;6666;51.626;7.530;2023-02-21T06:06:16;8.30;99.90
13203;DHT22;6666;51.626;7.530;2023-02-21T06:08:45;8.30;99.90
13203;DHT22;6666;51.626;7.530;2023-02-21T06:11:14;8.20;99.90
13203;DHT22;6666;51.626;7.530;2023-02-21T06:13:43;8.20;99.90
13203;DHT22;6666;51.626;7.530;2023-02-21T06:16:11;8.30;99.90
13203;DHT22;6666;51.626;7.530;2023-02-21T06:18:41;8.30;99.90
13203;DHT22;6666;51.626;7.530;2023-02-21T06:21:10;8.20;99.90
13203;DHT22;6666;51.626;7.530;2023-02-21T06:23:39;8.10;99.90
13203;DHT22;6666;51.626;7.530;2023-02-21T06:26:07;8.20;99.90
13203;DHT22;6666;51.626;7.530;2023-02-21T06:28:35;8.20;99.90
13203;DHT22;6666;51.626;7.530;2023-02-21T06:31:04;8.20;99.90
13203;DHT22;6666;51.626;7.530;2023-02-21T06:33:33;8.20;99.90
13203;DHT22;6666;51.626;7.530;2023-02-21T06:36:05;8.20;99.90
13203;DHT22;6666;51.626;7.530;2023-02-21T06:38:36;8.20;99.90
13203;DHT22;6666;51.626;7.530;2023-02-21T06:41:05;8.20;99.90
13203;DHT22;6666;51.626;7.530;2023-02-21T06:43:34;8.20;99.90
13203;DHT22;6666;51.626;7.530;2023-02-21T06:46:03;8.30;99.90
13203;DHT22;6666;51.626;7.530;2023-02-21T06:48:32;8.20;99.90
13203;DHT22;6666;51.626;7.530;2023-02-21T06:51:01;8.10;99.90
13203;DHT22;6666;51.626;7.530;2023-02-21T06:53:33;8.10;99.90
13203;DHT22;6666;51.626;7.530;2023-02-21T06:56:03;8.20;99.90
13203;DHT22;6666;51.626;7.530;2023-02-21T06:58:32;8.10;99.90
13203;DHT22;6666;51.626;7.530;2023-02-21T07:01:00;8.20;99.90
13203;DHT22;6666;51.626;7.530;2023-02-21T07:03:29;8.20;99.90
13203;DHT22;6666;51.626;7.530;2023-02-21T07:05:57;8.20;99.90
13203;DHT22;6666;51.626;7.530;2023-02-21T07:08:25;8.20;99.90
13203;DHT22;6666;51.626;7.530;2023-02-21T07:10:53;8.20;99.90
13203;DHT22;6666;51.626;7.530;2023-02-21T07:13:23;8.20;99.90
13203;DHT22;6666;51.626;7.530;2023-02-21T07:15:52;8.20;99.90
13203;DHT22;6666;51.626;7.530;2023-02-21T07:18:20;8.20;99.90
13203;DHT22;6666;51.626;7.530;2023-02-21T07:20:48;8.20;99.90
13203;DHT22;6666;51.626;7.530;2023-02-21T07:23:17;8.20;99.90
13203;DHT22;6666;51.626;7.530;2023-02-21T07:25:45;8.20;99.90
13203;DHT22;6666;51.626;7.530;2023-02-21T07:28:13;8.20;99.90
13203;DHT22;6666;51.626;7.530;2023-02-21T07:30:43;8.20;99.90
13203;DHT22;6666;51.626;7.530;2023-02-21T07:33:12;8.20;99.90
13203;DHT22;6666;51.626;7.530;2023-02-21T07:35:41;8.20;99.90
13203;DHT22;6666;51.626;7.530;2023-02-21T07:38:09;8.20;99.90
13203;DHT22;6666;51.626;7.530;2023-02-21T07:40:37;8.30;99.90
13203;DHT22;6666;51.626;7.530;2023-02-21T07:43:06;8.30;99.90
13203;DHT22;6666;51.626;7.530;2023-02-21T07:45:34;8.30;99.90
13203;DHT22;6666;51.626;7.530;2023-02-21T07:48:04;8.30;99.90
13203;DHT22;6666;51.626;7.530;2023-02-21T07:50:32;8.30;99.90
13203;DHT22;6666;51.626;7.530;2023-02-21T07:53:01;8.30;99.90
13203;DHT22;6666;51.626;7.530;2023-02-21T07:55:29;8.20;99.90
13203;DHT22;6666;51.626;7.530;2023-02-21T07:57:58;8.20;99.90
13203;DHT22;6666;51.626;7.530;2023-02-21T08:00:27;8.20;99.90
13203;DHT22;6666;51.626;7.530;2023-02-21T08:02:55;8.30;99.90
13203;DHT22;6666;51.626;7.530;2023-02-21T08:05:25;8.30;99.90
13203;DHT22;6666;51.626;7.530;2023-02-21T08:07:53;8.40;99.90
13203;DHT22;6666;51.626;7.530;2023-02-21T08:10:23;8.30;99.90
13203;DHT22;6666;51.626;7.530;2023-02-21T08:12:52;8.30;99.90
13203;DHT22;6666;51.626;7.530;2023-02-21T08:15:20;8.40;99.90
13203;DHT22;6666;51.626;7.530;2023-02-21T08:17:49;8.40;99.90
13203;DHT22;6666;51.626;7.530;2023-02-21T08:20:18;8.40;99.90
13203;DHT22;6666;51.626;7.530;2023-02-21T08:22:48;8.40;99.90
13203;DHT22;6666;51.626;7.530;2023-02-21T08:25:17;8.40;99.90
13203;DHT22;6666;51.626;7.530;2023-02-21T08:27:45;8.30;99.90
13203;DHT22;6666;51.626;7.530;2023-02-21T08:30:19;8.40;99.90
13203;DHT22;6666;51.626;7.530;2023-02-21T08:32:48;8.30;99.90
13203;DHT22;6666;51.626;7.530;2023-02-21T08:35:18;8.30;99.90
13203;DHT22;6666;51.626;7.530;2023-02-21T08:37:48;8.40;99.90
13203;DHT22;6666;51.626;7.530;2023-02-21T08:40:18;8.40;99.90
13203;DHT22;6666;51.626;7.530;2023-02-21T08:42:48;8.40;99.90
13203;DHT22;6666;51.626;7.530;2023-02-21T08:45:19;8.30;99.90
13203;DHT22;6666;51.626;7.530;2023-02-21T08:47:48;8.40;99.90
13203;DHT22;6666;51.626;7.530;2023-02-21T08:50:18;8.30;99.90
13203;DHT22;6666;51.626;7.530;2023-02-21T08:52:49;8.40;99.90
13203;DHT22;6666;51.626;7.530;2023-02-21T08:55:19;8.40;99.90
13203;DHT22;6666;51.626;7.530;2023-02-21T08:57:48;8.40;99.90
13203;DHT22;6666;51.626;7.530;2023-02-21T09:00:18;8.40;99.90
13203;DHT22;6666;51.626;7.530;2023-02-21T09:02:49;8.40;99.90
13203;DHT22;6666;51.626;7.530;2023-02-21T09:05:20;8.40;99.90
13203;DHT22;6666;51.626;7.530;2023-02-21T09:07:52;8.40;99.90
13203;DHT22;6666;51.626;7.530;2023-02-21T09:10:26;8.40;99.90
13203;DHT22;6666;51.626;7.530;2023-02-21T09:12:55;8.40;99.90
13203;DHT22;6666;51.626;7.530;2023-02-21T09:15:23;8.50;99.90
13203;DHT22;6666;51.626;7.530;2023-02-21T09:17:52;8.50;99.90
13203;DHT22;6666;51.626;7.530;2023-02-21T09:20:22;8.40;99.90
13203;DHT22;6666;51.626;7.530;2023-02-21T09:22:52;8.40;99.90
13203;DHT22;6666;51.626;7.530;2023-02-21T09:25:22;8.40;99.90
13203;DHT22;6666;51.626;7.530;2023-02-21T09:27:51;8.40;99.90
13203;DHT22;6666;51.626;7.530;2023-02-21T09:30:22;8.40;99.90
13203;DHT22;6666;51.626;7.530;2023-02-21T09:32:53;8.30;99.90
13203;DHT22;6666;51.626;7.530;2023-02-21T09:35:22;8.40;99.90
13203;DHT22;6666;51.626;7.530;2023-02-21T09:37:52;8.30;99.90
13203;DHT22;6666;51.626;7.530;2023-02-21T09:40:28;8.30;99.90
13203;DHT22;6666;51.626;7.530;2023-02-21T09:43:00;8.30;99.90
13203;DHT22;6666;51.626;7.530;2023-02-21T09:45:31;8.30;99.90
13203;DHT22;6666;51.626;7.530;2023-02-21T09:48:03;8.40;99.90
13203;DHT22;6666;51.626;7.530;2023-02-21T09:50:39;8.40;99.90
13203;DHT22;6666;51.626;7.530;2023-02-21T09:53:10;8.50;99.90
13203;DHT22;6666;51.626;7.530;2023-02-21T09:55:40;8.50;99.90
13203;DHT22;6666;51.626;7.530;2023-02-21T09:58:11;8.50;99.90
13203;DHT22;6666;51.626;7.530;2023-02-21T10:00:39;8.40;99.90
13203;DHT22;6666;51.626;7.530;2023-02-21T10:03:30;8.40;99.90
13203;DHT22;6666;51.626;7.530;2023-02-21T10:06:10;8.40;99.90
13203;DHT22;6666;51.626;7.530;2023-02-21T10:08:46;8.40;99.90
13203;DHT22;6666;51.626;7.530;2023-02-21T10:11:25;8.40;99.90
13203;DHT22;6666;51.626;7.530;2023-02-21T10:14:10;8.40;99.90
13203;DHT22;6666;51.626;7.530;2023-02-21T10:16:49;8.40;99.90
13203;DHT22;6666;51.626;7.530;2023-02-21T10:19:24;8.60;99.90
13203;DHT22;6666;51.626;7.530;2023-02-21T10:21:56;8.60;99.90
13203;DHT22;6666;51.626;7.530;2023-02-21T10:24:27;8.60;99.90
13203;DHT22;6666;51.626;7.530;2023-02-21T10:27:00;8.60;99.90
13203;DHT22;6666;51.626;7.530;2023-02-21T10:29:40;8.60;99.90
13203;DHT22;6666;51.626;7.530;2023-02-21T10:32:11;8.70;99.90
13203;DHT22;6666;51.626;7.530;2023-02-21T10:34:39;8.70;99.90
13203;DHT22;6666;51.626;7.530;2023-02-21T10:37:26;8.70;99.90
13203;DHT22;6666;51.626;7.530;2023-02-21T10:40:00;8.70;99.90
13203;DHT22;6666;51.626;7.530;2023-02-21T10:42:38;8.60;99.90
13203;DHT22;6666;51.626;7.530;2023-02-21T10:45:10;8.60;99.90
13203;DHT22;6666;51.626;7.530;2023-02-21T10:47:47;8.70;99.90
13203;DHT22;6666;51.626;7.530;2023-02-21T10:50:39;8.50;99.90
13203;DHT22;6666;51.626;7.530;2023-02-21T10:53:08;8.60;99.90
13203;DHT22;6666;51.626;7.530;2023-02-21T10:55:38;8.60;99.90
13203;DHT22;6666;51.626;7.530;2023-02-21T10:58:08;8.60;99.90
13203;DHT22;6666;51.626;7.530;2023-02-21T11:00:38;8.70;99.90
13203;DHT22;6666;51.626;7.530;2023-02-21T11:03:19;8.70;99.90
13203;DHT22;6666;51.626;7.530;2023-02-21T11:05:49;8.80;99.90
13203;DHT22;6666;51.626;7.530;2023-02-21T11:08:34;8.70;99.90
13203;DHT22;6666;51.626;7.530;2023-02-21T11:11:05;8.80;99.90
13203;DHT22;6666;51.626;7.530;2023-02-21T11:13:34;8.90;99.90
13203;DHT22;6666;51.626;7.530;2023-02-21T11:16:10;8.80;99.90
13203;DHT22;6666;51.626;7.530;2023-02-21T11:18:39;8.80;99.90
13203;DHT22;6666;51.626;7.530;2023-02-21T11:21:12;8.70;99.90
13203;DHT22;6666;51.626;7.530;2023-02-21T11:23:44;8.60;99.90
13203;DHT22;6666;51.626;7.530;2023-02-21T11:26:15;8.70;99.90
13203;DHT22;6666;51.626;7.530;2023-02-21T11:28:45;8.70;99.90
13203;DHT22;6666;51.626;7.530;2023-02-21T11:31:17;8.70;99.90
13203;DHT22;6666;51.626;7.530;2023-02-21T11:33:54;8.80;99.90
13203;DHT22;6666;51.626;7.530;2023-02-21T11:36:27;8.80;99.90
13203;DHT22;6666;51.626;7.530;2023-02-21T11:39:01;8.80;99.90
13203;DHT22;6666;51.626;7.530;2023-02-21T11:41:37;8.90;99.90
13203;DHT22;6666;51.626;7.530;2023-02-21T11:44:24;8.90;99.90
13203;DHT22;6666;51.626;7.530;2023-02-21T11:47:06;8.80;99.90
13203;DHT22;6666;51.626;7.530;2023-02-21T11:49:43;8.90;99.90
13203;DHT22;6666;51.626;7.530;2023-02-21T11:52:21;8.80;99.90
13203;DHT22;6666;51.626;7.530;2023-02-21T11:54:50;8.80;99.90
13203;DHT22;6666;51.626;7.530;2023-02-21T11:57:27;8.80;99.90
13203;DHT22;6666;51.626;7.530;2023-02-21T12:00:07;8.80;99.90
13203;DHT22;6666;51.626;7.530;2023-02-21T12:03:00;8.90;99.90
13203;DHT22;6666;51.626;7.530;2023-02-21T12:05:44;8.90;99.90
13203;DHT22;6666;51.626;7.530;2023-02-21T12:08:36;8.90;99.90
13203;DHT22;6666;51.626;7.530;2023-02-21T12:14:15;8.90;99.90
13203;DHT22;6666;51.626;7.530;2023-02-21T12:17:00;9.00;99.90
13203;DHT22;6666;51.626;7.530;2023-02-21T12:19:46;9.10;99.90
13203;DHT22;6666;51.626;7.530;2023-02-21T12:22:26;9.10;99.90
13203;DHT22;6666;51.626;7.530;2023-02-21T12:25:09;9.00;99.90
13203;DHT22;6666;51.626;7.530;2023-02-21T12:27:44;9.00;99.90
13203;DHT22;6666;51.626;7.530;2023-02-21T12:30:27;9.00;99.90
13203;DHT22;6666;51.626;7.530;2023-02-21T12:33:15;9.10;99.90
13203;DHT22;6666;51.626;7.530;2023-02-21T12:36:08;9.10;99.90
13203;DHT22;6666;51.626;7.530;2023-02-21T12:38:58;9.00;99.90
13203;DHT22;6666;51.626;7.530;2023-02-21T12:41:46;9.10;99.90
13203;DHT22;6666;51.626;7.530;2023-02-21T12:44:19;9.20;99.90
13203;DHT22;6666;51.626;7.530;2023-02-21T12:46:55;9.10;99.90
13203;DHT22;6666;51.626;7.530;2023-02-21T12:49:30;9.10;99.90
13203;DHT22;6666;51.626;7.530;2023-02-21T12:52:11;9.10;99.90
13203;DHT22;6666;51.626;7.530;2023-02-21T12:54:46;9.20;99.90
13203;DHT22;6666;51.626;7.530;2023-02-21T12:57:18;9.20;99.90
13203;DHT22;6666;51.626;7.530;2023-02-21T12:59:56;9.30;99.90
13203;DHT22;6666;51.626;7.530;2023-02-21T13:02:41;9.30;99.90
13203;DHT22;6666;51.626;7.530;2023-02-21T13:05:14;9.30;99.90
13203;DHT22;6666;51.626;7.530;2023-02-21T13:07:47;9.40;99.90
13203;DHT22;6666;51.626;7.530;2023-02-21T13:10:19;9.40;99.90
13203;DHT22;6666;51.626;7.530;2023-02-21T13:12:55;9.40;99.90
13203;DHT22;6666;51.626;7.530;2023-02-21T13:15:27;9.40;99.90
13203;DHT22;6666;51.626;7.530;2023-02-21T13:18:00;9.40;99.90
13203;DHT22;6666;51.626;7.530;2023-02-21T13:20:34;9.40;99.90
13203;DHT22;6666;51.626;7.530;2023-02-21T13:23:21;9.50;99.90
13203;DHT22;6666;51.626;7.530;2023-02-21T13:26:23;9.60;99.90
13203;DHT22;6666;51.626;7.530;2023-02-21T13:28:54;9.60;99.90
13203;DHT22;6666;51.626;7.530;2023-02-21T13:31:25;9.60;99.90
13203;DHT22;6666;51.626;7.530;2023-02-21T13:33:59;9.60;99.90
13203;DHT22;6666;51.626;7.530;2023-02-21T13:36:31;9.60;99.90
13203;DHT22;6666;51.626;7.530;2023-02-21T13:39:09;9.70;99.90
13203;DHT22;6666;51.626;7.530;2023-02-21T13:41:41;9.70;99.90
13203;DHT22;6666;51.626;7.530;2023-02-21T13:44:15;9.80;99.90
13203;DHT22;6666;51.626;7.530;2023-02-21T13:47:07;9.70;99.90
13203;DHT22;6666;51.626;7.530;2023-02-21T13:49:53;9.80;99.90
13203;DHT22;6666;51.626;7.530;2023-02-21T13:55:28;9.80;99.90
13203;DHT22;6666;51.626;7.530;2023-02-21T14:07:11;9.90;99.90
13203;DHT22;6666;51.626;7.530;2023-02-21T14:09:40;9.80;99.90
13203;DHT22;6666;51.626;7.530;2023-02-21T14:12:09;9.80;99.90
13203;DHT22;6666;51.626;7.530;2023-02-21T14:14:41;9.90;99.90
13203;DHT22;6666;51.626;7.530;2023-02-21T14:17:13;9.80;99.90
13203;DHT22;6666;51.626;7.530;2023-02-21T14:19:45;9.80;99.90
13203;DHT22;6666;51.626;7.530;2023-02-21T14:22:16;9.90;99.90
13203;DHT22;6666;51.626;7.530;2023-02-21T14:24:49;9.90;99.90
13203;DHT22;6666;51.626;7.530;2023-02-21T14:27:34;9.90;99.90
13203;DHT22;6666;51.626;7.530;2023-02-21T14:30:24;9.90;99.90
13203;DHT22;6666;51.626;7.530;2023-02-21T14:32:56;9.90;99.90
13203;DHT22;6666;51.626;7.530;2023-02-21T14:35:31;9.90;99.90
13203;DHT22;6666;51.626;7.530;2023-02-21T14:38:02;9.90;99.90
13203;DHT22;6666;51.626;7.530;2023-02-21T14:40:45;9.90;99.90
13203;DHT22;6666;51.626;7.530;2023-02-21T14:43:25;9.90;99.90
13203;DHT22;6666;51.626;7.530;2023-02-21T14:46:11;9.90;99.90
13203;DHT22;6666;51.626;7.530;2023-02-21T14:49:00;9.90;99.90
13203;DHT22;6666;51.626;7.530;2023-02-21T14:55:01;10.10;99.90
13203;DHT22;6666;51.626;7.530;2023-02-21T14:57:53;10.10;99.90
13203;DHT22;6666;51.626;7.530;2023-02-21T15:00:35;10.10;99.90
13203;DHT22;6666;51.626;7.530;2023-02-21T15:03:11;10.10;99.90
13203;DHT22;6666;51.626;7.530;2023-02-21T15:05:46;10.00;99.90
13203;DHT22;6666;51.626;7.530;2023-02-21T15:08:22;10.00;99.90
13203;DHT22;6666;51.626;7.530;2023-02-21T15:10:55;10.00;99.90
13203;DHT22;6666;51.626;7.530;2023-02-21T15:13:27;10.10;99.90
13203;DHT22;6666;51.626;7.530;2023-02-21T15:15:58;10.00;99.90
13203;DHT22;6666;51.626;7.530;2023-02-21T15:18:28;10.00;99.90
13203;DHT22;6666;51.626;7.530;2023-02-21T15:21:07;9.90;99.90
13203;DHT22;6666;51.626;7.530;2023-02-21T15:23:35;9.90;99.90
13203;DHT22;6666;51.626;7.530;2023-02-21T15:26:17;9.90;99.90
13203;DHT22;6666;51.626;7.530;2023-02-21T15:29:03;9.90;99.90
13203;DHT22;6666;51.626;7.530;2023-02-21T15:31:32;10.00;99.90
13203;DHT22;6666;51.626;7.530;2023-02-21T15:34:01;10.00;99.90
13203;DHT22;6666;51.626;7.530;2023-02-21T15:36:31;10.00;99.90
13203;DHT22;6666;51.626;7.530;2023-02-21T15:39:04;9.90;99.90
13203;DHT22;6666;51.626;7.530;2023-02-21T15:41:38;9.90;99.90
13203;DHT22;6666;51.626;7.530;2023-02-21T15:44:11;9.90;99.90
13203;DHT22;6666;51.626;7.530;2023-02-21T15:46:45;9.90;99.90
13203;DHT22;6666;51.626;7.530;2023-02-21T15:49:20;9.80;99.90
13203;DHT22;6666;51.626;7.530;2023-02-21T15:51:50;9.80;99.90
13203;DHT22;6666;51.626;7.530;2023-02-21T15:54:25;9.80;99.90
13203;DHT22;6666;51.626;7.530;2023-02-21T15:57:03;9.80;99.90
13203;DHT22;6666;51.626;7.530;2023-02-21T15:59:35;9.70;99.90
13203;DHT22;6666;51.626;7.530;2023-02-21T16:02:13;9.80;99.90
13203;DHT22;6666;51.626;7.530;2023-02-21T16:04:43;9.80;99.90
13203;DHT22;6666;51.626;7.530;2023-02-21T16:07:16;9.80;99.90
13203;DHT22;6666;51.626;7.530;2023-02-21T16:09:48;9.80;99.90
13203;DHT22;6666;51.626;7.530;2023-02-21T16:12:30;9.70;99.90
13203;DHT22;6666;51.626;7.530;2023-02-21T16:15:00;9.70;99.90
13203;DHT22;6666;51.626;7.530;2023-02-21T16:17:31;9.70;99.90
13203;DHT22;6666;51.626;7.530;2023-02-21T16:20:08;9.60;99.90
13203;DHT22;6666;51.626;7.530;2023-02-21T16:22:40;9.60;99.90
13203;DHT22;6666;51.626;7.530;2023-02-21T16:25:30;9.60;99.90
13203;DHT22;6666;51.626;7.530;2023-02-21T16:28:01;9.60;99.90
13203;DHT22;6666;51.626;7.530;2023-02-21T16:30:30;9.60;99.90
13203;DHT22;6666;51.626;7.530;2023-02-21T16:33:03;9.60;99.90
13203;DHT22;6666;51.626;7.530;2023-02-21T16:35:32;9.60;99.90
13203;DHT22;6666;51.626;7.530;2023-02-21T16:38:01;9.60;99.90
13203;DHT22;6666;51.626;7.530;2023-02-21T16:40:30;9.60;99.90
13203;DHT22;6666;51.626;7.530;2023-02-21T16:43:02;9.60;99.90
13203;DHT22;6666;51.626;7.530;2023-02-21T16:45:31;9.60;99.90
13203;DHT22;6666;51.626;7.530;2023-02-21T16:48:03;9.50;99.90
13203;DHT22;6666;51.626;7.530;2023-02-21T16:50:33;9.60;99.90
13203;DHT22;6666;51.626;7.530;2023-02-21T16:53:03;9.50;99.90
13203;DHT22;6666;51.626;7.530;2023-02-21T16:55:31;9.60;99.90
13203;DHT22;6666;51.626;7.530;2023-02-21T16:58:04;9.50;99.90
13203;DHT22;6666;51.626;7.530;2023-02-21T17:00:33;9.50;99.90
13203;DHT22;6666;51.626;7.530;2023-02-21T17:03:01;9.50;99.90
13203;DHT22;6666;51.626;7.530;2023-02-21T17:05:30;9.50;99.90
13203;DHT22;6666;51.626;7.530;2023-02-21T17:08:02;9.50;99.90
13203;DHT22;6666;51.626;7.530;2023-02-21T17:10:30;9.50;99.90
13203;DHT22;6666;51.626;7.530;2023-02-21T17:12:59;9.50;99.90
13203;DHT22;6666;51.626;7.530;2023-02-21T17:15:30;9.60;99.90
13203;DHT22;6666;51.626;7.530;2023-02-21T17:17:59;9.60;99.90